Time;durP1;ratioP1;P1;durP2;ratioP2;P2;SDS_P1;SDS_P2;PMS_P1;PMS_P2;Temp;Humidity;BMP_temperature;BMP_pressure;BME280_temperature;BME280_humidity;BME280_pressure;Samples;Min_cycle;Max_cycle;Signal;HPM_P1;HPM_P2
2023/03/31 00:01:42;;;;;;;7.10;3.17;;;;;;;8.92;100.00;95881.22;5067007;28;20238;-78
2023/03/31 00:04:12;;;;;;;6.30;3.00;;;;;;;8.93;100.00;95858.63;5059668;28;20278;-78
2023/03/31 00:06:40;;;;;;;4.80;2.90;;;;;;;8.91;100.00;95855.34;5067528;28;20271;-78
2023/03/31 00:09:12;;;;;;;11.70;3.40;;;;;;;8.86;100.00;95853.31;5067858;28;20210;-78
2023/03/31 00:11:40;;;;;;;3.50;2.80;;;;;;;8.80;100.00;95858.81;5053542;28;20233;-79
2023/03/31 00:14:08;;;;;;;8.90;3.50;;;;;;;8.80;100.00;95851.56;5059606;28;20218;-78
2023/03/31 00:16:35;;;;;;;8.20;3.30;;;;;;;8.80;100.00;95859.66;5055685;28;20236;-78
2023/03/31 00:19:03;;;;;;;5.87;3.27;;;;;;;8.78;100.00;95859.03;5065982;28;20225;-78
2023/03/31 00:21:33;;;;;;;4.70;2.97;;;;;;;8.82;100.00;95841.41;5064748;28;20231;-78
2023/03/31 00:24:03;;;;;;;5.50;3.13;;;;;;;8.93;100.00;95837.88;5062398;28;20225;-77
2023/03/31 00:26:32;;;;;;;4.07;2.97;;;;;;;8.87;100.00;95843.38;5064194;28;20229;-78
2023/03/31 00:29:00;;;;;;;5.40;3.70;;;;;;;8.81;100.00;95845.13;5058207;28;20226;-78
2023/03/31 00:31:28;;;;;;;5.90;3.20;;;;;;;8.88;100.00;95845.03;5068581;28;20260;-78
2023/03/31 00:33:55;;;;;;;5.10;3.23;;;;;;;8.84;100.00;95843.88;5059936;28;20217;-78
2023/03/31 00:36:26;;;;;;;6.03;3.20;;;;;;;8.81;100.00;95833.53;5080682;28;20230;-78
2023/03/31 00:38:55;;;;;;;4.07;3.13;;;;;;;8.80;100.00;95832.72;5066531;28;20224;-78
2023/03/31 00:41:22;;;;;;;4.50;3.30;;;;;;;8.81;100.00;95820.91;5064551;28;20214;-78
2023/03/31 00:44:09;;;;;;;5.00;3.37;;;;;;;8.76;100.00;95826.19;5066914;28;20233;-78
2023/03/31 00:46:41;;;;;;;4.40;2.93;;;;;;;8.72;100.00;95831.19;5062069;28;20225;-78
2023/03/31 00:49:16;;;;;;;4.80;2.90;;;;;;;8.71;100.00;95834.94;5066764;28;20218;-78
2023/03/31 00:51:44;;;;;;;4.30;3.13;;;;;;;8.68;100.00;95832.69;5057596;28;20217;-77
2023/03/31 00:54:12;;;;;;;4.10;3.37;;;;;;;8.59;100.00;95817.94;5061864;28;20230;-78
2023/03/31 00:56:42;;;;;;;3.97;2.87;;;;;;;8.59;100.00;95822.53;5062279;28;20214;-77
2023/03/31 00:59:13;;;;;;;5.37;3.27;;;;;;;8.64;100.00;95828.00;5060091;28;20351;-79
2023/03/31 01:01:43;;;;;;;4.53;2.93;;;;;;;8.62;100.00;95827.41;5072113;28;20236;-78
2023/03/31 01:04:12;;;;;;;6.53;3.23;;;;;;;8.61;100.00;95829.28;5059617;28;20233;-78
2023/03/31 01:06:49;;;;;;;3.50;3.00;;;;;;;8.64;100.00;95825.31;5054815;28;20297;-78
2023/03/31 01:09:16;;;;;;;4.13;3.20;;;;;;;8.61;100.00;95828.47;5084674;28;20226;-78
2023/03/31 01:11:46;;;;;;;3.70;2.80;;;;;;;8.60;100.00;95814.19;5065127;28;20256;-78
2023/03/31 01:14:15;;;;;;;5.20;3.07;;;;;;;8.54;100.00;95796.28;5061445;28;20321;-78
2023/03/31 01:16:44;;;;;;;3.13;2.83;;;;;;;8.45;100.00;95780.69;5062488;28;20228;-78
2023/03/31 01:19:24;;;;;;;8.07;3.17;;;;;;;8.32;100.00;95777.19;5063284;28;20260;-78
2023/03/31 01:22:15;;;;;;;373.30;334.87;;;;;;;8.20;100.00;95770.06;5063414;28;20272;-77
2023/03/31 01:25:33;;;;;;;5.53;2.97;;;;;;;8.16;100.00;95752.78;5064919;28;20233;-77
2023/03/31 01:28:12;;;;;;;5.53;3.27;;;;;;;8.13;100.00;95739.78;5036970;28;20236;-78
2023/03/31 01:31:17;;;;;;;5.33;3.10;;;;;;;8.10;100.00;95738.38;5062895;28;20347;-77
2023/03/31 01:34:14;;;;;;;3.20;2.83;;;;;;;8.21;100.00;95744.81;5063304;28;20213;-78
2023/03/31 01:37:06;;;;;;;7.53;3.30;;;;;;;8.16;100.00;95737.47;5027184;28;20247;-77
2023/03/31 01:40:15;;;;;;;3.87;2.50;;;;;;;8.30;100.00;95720.06;5065468;28;20316;-78
2023/03/31 01:42:47;;;;;;;4.90;2.97;;;;;;;8.50;100.00;95722.47;5064653;28;20225;-78
2023/03/31 01:45:26;;;;;;;7.53;2.73;;;;;;;8.58;100.00;95729.38;5065049;28;20312;-77
2023/03/31 01:47:58;;;;;;;7.03;3.40;;;;;;;8.61;100.00;95710.06;5062268;28;20225;-78
2023/03/31 01:50:31;;;;;;;5.97;3.00;;;;;;;8.65;100.00;95717.44;5084120;28;20292;-78
2023/03/31 01:53:07;;;;;;;7.23;2.80;;;;;;;8.62;100.00;95709.84;5062447;28;20227;-77
2023/03/31 01:55:39;;;;;;;5.20;3.50;;;;;;;8.63;100.00;95708.78;5055436;28;20275;-78
2023/03/31 01:58:12;;;;;;;6.83;2.63;;;;;;;8.65;100.00;95719.31;5077335;28;20333;-77
2023/03/31 02:00:45;;;;;;;6.07;2.77;;;;;;;8.69;100.00;95715.09;5057957;28;20220;-78
2023/03/31 02:03:20;;;;;;;4.17;2.47;;;;;;;8.66;100.00;95711.03;5059029;28;20256;-77
2023/03/31 02:05:54;;;;;;;4.93;2.77;;;;;;;8.65;100.00;95705.88;5065206;28;20225;-78
2023/03/31 02:08:24;;;;;;;4.87;2.67;;;;;;;8.65;100.00;95698.59;5082007;28;20229;-77
2023/03/31 02:10:54;;;;;;;4.40;2.63;;;;;;;8.72;100.00;95717.31;5061737;28;20276;-78
2023/03/31 02:13:25;;;;;;;6.00;2.93;;;;;;;8.73;100.00;95713.59;5063874;28;20214;-78
2023/03/31 02:15:56;;;;;;;4.50;3.00;;;;;;;8.76;100.00;95718.50;5066313;28;20229;-78
2023/03/31 02:18:29;;;;;;;2.67;2.47;;;;;;;8.70;100.00;95720.25;5063513;28;20228;-78
2023/03/31 02:20:59;;;;;;;3.97;2.50;;;;;;;8.75;100.00;95714.19;5071976;28;20225;-78
2023/03/31 02:23:31;;;;;;;3.83;2.83;;;;;;;8.71;100.00;95727.28;5071748;28;20221;-77
2023/03/31 02:26:04;;;;;;;6.03;2.80;;;;;;;8.76;100.00;95713.13;5064089;28;20230;-78
2023/03/31 02:28:32;;;;;;;4.23;3.03;;;;;;;8.68;100.00;95700.00;5067917;28;20229;-78
2023/03/31 02:31:09;;;;;;;5.37;3.17;;;;;;;8.62;100.00;95703.63;5055614;28;20233;-78
2023/03/31 02:33:36;;;;;;;3.87;2.83;;;;;;;8.60;100.00;95713.78;5057904;28;20221;-78
2023/03/31 02:36:06;;;;;;;5.00;3.33;;;;;;;8.57;100.00;95712.41;5068383;28;20260;-78
2023/03/31 02:38:37;;;;;;;6.37;3.23;;;;;;;8.55;100.00;95705.63;5080065;28;20348;-79
2023/03/31 02:41:07;;;;;;;7.60;3.30;;;;;;;8.57;100.00;95714.28;5067383;28;20226;-77
2023/03/31 02:43:34;;;;;;;7.37;3.00;;;;;;;8.57;100.00;95717.78;5069211;28;20220;-78
2023/03/31 02:46:01;;;;;;;5.93;3.03;;;;;;;8.62;100.00;95706.31;5062177;28;20229;-77
2023/03/31 02:48:35;;;;;;;9.27;3.00;;;;;;;8.60;100.00;95689.56;5059250;28;20256;-78
2023/03/31 02:51:19;;;;;;;4.00;2.87;;;;;;;8.60;100.00;95692.28;5072454;28;20214;-78
2023/03/31 02:54:04;;;;;;;4.90;3.00;;;;;;;8.56;100.00;95685.75;5063862;28;20214;-78
2023/03/31 02:57:02;;;;;;;2.60;2.40;;;;;;;8.59;100.00;95690.66;5061992;28;20238;-78
2023/03/31 02:59:41;;;;;;;5.60;2.63;;;;;;;8.73;100.00;95689.38;5061333;28;20228;-78
2023/03/31 03:02:19;;;;;;;5.00;3.10;;;;;;;8.90;100.00;95702.94;5060526;28;20225;-77
2023/03/31 03:05:09;;;;;;;6.00;2.97;;;;;;;8.76;100.00;95694.28;5062825;28;20221;-78
2023/03/31 03:07:48;;;;;;;3.20;2.77;;;;;;;8.72;100.00;95690.41;5062384;28;20229;-77
2023/03/31 03:10:23;;;;;;;2.57;2.30;;;;;;;8.72;100.00;95680.47;5060986;28;20269;-78
2023/03/31 03:12:58;;;;;;;3.43;2.60;;;;;;;8.68;100.00;95673.09;5065937;28;20664;-78
2023/03/31 03:15:31;;;;;;;4.60;2.60;;;;;;;8.64;100.00;95661.16;5066831;28;20287;-78
2023/03/31 03:17:59;;;;;;;7.23;2.80;;;;;;;8.73;100.00;95651.69;5077901;28;20240;-77
2023/03/31 03:20:26;;;;;;;4.47;3.07;;;;;;;8.67;100.00;95639.19;5062361;28;20226;-78
2023/03/31 03:22:53;;;;;;;3.57;2.67;;;;;;;8.67;100.00;95640.00;5062842;28;20221;-78
2023/03/31 03:25:21;;;;;;;5.00;2.70;;;;;;;8.69;100.00;95626.28;5061909;28;20221;-77
2023/03/31 03:27:48;;;;;;;5.53;2.63;;;;;;;8.70;100.00;95627.91;5064988;28;20233;-77
2023/03/31 03:30:16;;;;;;;5.03;2.63;;;;;;;8.75;100.00;95635.31;5082788;28;20218;-78
2023/03/31 03:32:43;;;;;;;4.53;2.50;;;;;;;8.84;100.00;95644.66;5061755;28;20230;-77
2023/03/31 03:35:10;;;;;;;4.37;2.50;;;;;;;8.78;100.00;95635.63;5066262;28;20233;-78
2023/03/31 03:37:38;;;;;;;4.20;2.87;;;;;;;8.77;100.00;95634.00;5064479;28;20225;-77
2023/03/31 03:40:07;;;;;;;4.97;2.30;;;;;;;8.85;100.00;95628.25;5066749;28;20267;-78
2023/03/31 03:42:34;;;;;;;4.13;2.57;;;;;;;8.84;100.00;95597.03;5058250;28;20230;-78
2023/03/31 03:45:01;;;;;;;4.17;2.57;;;;;;;8.86;100.00;95576.03;5062898;28;20224;-78
2023/03/31 03:47:30;;;;;;;5.10;2.60;;;;;;;8.87;100.00;95563.41;5065062;28;20317;-77
2023/03/31 03:49:57;;;;;;;4.07;2.27;;;;;;;9.01;100.00;95551.31;5062573;28;20220;-79
2023/03/31 03:52:24;;;;;;;6.07;2.53;;;;;;;9.19;100.00;95556.50;5081942;28;20237;-78
2023/03/31 03:54:51;;;;;;;3.33;2.30;;;;;;;9.31;100.00;95553.75;5061967;28;20233;-78
2023/03/31 03:57:18;;;;;;;6.23;2.80;;;;;;;9.33;100.00;95530.09;5070360;28;20233;-78
2023/03/31 03:59:45;;;;;;;4.43;2.03;;;;;;;9.49;100.00;95502.34;5063001;28;20226;-77
2023/03/31 04:02:12;;;;;;;4.47;1.73;;;;;;;10.07;100.00;95483.03;5065571;28;20226;-78
2023/03/31 04:04:41;;;;;;;2.97;1.70;;;;;;;10.75;100.00;95471.00;5059865;28;20225;-78
2023/03/31 04:07:08;;;;;;;4.87;1.53;;;;;;;11.78;94.42;95477.16;5065812;28;20239;-78
2023/03/31 04:09:35;;;;;;;3.87;1.70;;;;;;;12.27;92.36;95463.41;5060701;28;20224;-78
2023/03/31 04:12:02;;;;;;;2.70;1.53;;;;;;;12.56;87.68;95456.53;5070713;28;20217;-78
2023/03/31 04:14:29;;;;;;;1.93;1.40;;;;;;;12.75;86.80;95427.91;5065673;28;20229;-77
2023/03/31 04:16:57;;;;;;;1.97;1.77;;;;;;;13.04;83.74;95424.72;5062585;28;20221;-78
2023/03/31 04:19:26;;;;;;;1.60;1.10;;;;;;;13.24;82.46;95409.34;5063683;28;20223;-78
2023/03/31 04:22:01;;;;;;;3.07;1.27;;;;;;;13.35;81.61;95393.09;5061234;28;20225;-78
2023/03/31 04:24:31;;;;;;;1.70;1.40;;;;;;;13.58;78.71;95384.41;5065263;28;20318;-79
2023/03/31 04:26:59;;;;;;;1.30;1.20;;;;;;;13.71;77.97;95396.59;5040512;28;20221;-77
2023/03/31 04:29:26;;;;;;;1.87;1.10;;;;;;;13.86;76.48;95388.44;5084639;28;20236;-77
2023/03/31 04:31:57;;;;;;;3.47;1.17;;;;;;;13.93;75.60;95399.81;5058019;28;20360;-77
2023/03/31 04:34:33;;;;;;;1.43;1.20;;;;;;;13.98;75.13;95386.25;5064059;28;20218;-79
2023/03/31 04:37:02;;;;;;;4.10;1.47;;;;;;;14.09;71.80;95387.84;5052927;28;20305;-78
2023/03/31 04:39:30;;;;;;;3.70;1.17;;;;;;;14.38;70.76;95410.59;5078355;28;20220;-77
2023/03/31 04:42:00;;;;;;;1.23;1.10;;;;;;;14.51;70.84;95414.63;5074368;28;20324;-78
2023/03/31 04:44:27;;;;;;;4.17;1.20;;;;;;;14.36;75.84;95439.91;5063005;28;20224;-77
2023/03/31 04:46:54;;;;;;;2.70;1.40;;;;;;;14.26;75.02;95449.97;5055925;28;20222;-77
2023/03/31 04:49:21;;;;;;;1.50;1.20;;;;;;;14.25;75.19;95461.91;5063730;28;20244;-77
2023/03/31 04:51:48;;;;;;;3.30;1.20;;;;;;;14.13;76.38;95456.78;5066822;28;20219;-77
2023/03/31 04:54:17;;;;;;;1.57;1.03;;;;;;;14.13;75.50;95448.63;5063099;28;20225;-79
2023/03/31 04:56:44;;;;;;;2.13;1.10;;;;;;;14.02;77.21;95426.13;5055766;28;20265;-78
2023/03/31 04:59:11;;;;;;;5.40;1.33;;;;;;;13.77;81.29;95419.94;5076886;28;20288;-78
2023/03/31 05:01:43;;;;;;;2.90;1.40;;;;;;;13.45;86.92;95393.88;5060984;28;20262;-78
2023/03/31 05:04:10;;;;;;;2.03;1.20;;;;;;;13.02;90.46;95372.69;5055235;28;20282;-78
2023/03/31 05:06:37;;;;;;;3.10;1.43;;;;;;;12.92;88.19;95356.44;5061852;28;20214;-78
2023/03/31 05:09:05;;;;;;;2.57;1.10;;;;;;;13.29;79.59;95338.03;5067661;28;20229;-77
2023/03/31 05:11:33;;;;;;;1.30;1.20;;;;;;;13.74;76.71;95352.66;5066565;28;20445;-77
2023/03/31 05:14:00;;;;;;;1.37;1.10;;;;;;;14.06;74.77;95347.69;5075725;28;20228;-77
2023/03/31 05:16:27;;;;;;;2.00;1.30;;;;;;;13.90;76.65;95329.81;5058346;28;20230;-78
2023/03/31 05:18:55;;;;;;;2.50;1.20;;;;;;;13.92;76.10;95327.66;5054616;28;20256;-77
2023/03/31 05:21:23;;;;;;;2.00;1.30;;;;;;;14.01;75.01;95315.13;5070475;28;20312;-78
2023/03/31 05:23:50;;;;;;;2.33;1.40;;;;;;;13.88;76.08;95305.66;5077069;28;20225;-78
2023/03/31 05:26:17;;;;;;;2.70;1.20;;;;;;;13.94;73.85;95293.72;5065615;28;20217;-77
2023/03/31 05:28:46;;;;;;;2.03;1.10;;;;;;;14.24;70.28;95281.09;5065797;28;20267;-77
2023/03/31 05:31:14;;;;;;;3.47;1.17;;;;;;;14.62;67.28;95276.84;5065607;28;20232;-77
2023/03/31 05:33:41;;;;;;;1.40;1.10;;;;;;;14.56;68.62;95280.69;5057605;28;20245;-79
2023/03/31 05:36:09;;;;;;;1.70;1.30;;;;;;;14.49;67.88;95293.75;5060845;28;20213;-78
2023/03/31 05:38:37;;;;;;;3.47;1.37;;;;;;;14.51;69.83;95288.88;5064977;28;20244;-78
2023/03/31 05:41:05;;;;;;;1.10;1.00;;;;;;;14.47;69.28;95290.50;5059472;28;20221;-77
2023/03/31 05:43:32;;;;;;;3.80;1.40;;;;;;;14.46;69.04;95299.78;5079895;28;20236;-78
2023/03/31 05:46:00;;;;;;;0.90;0.90;;;;;;;14.55;68.58;95287.19;5065897;28;20225;-78
2023/03/31 05:48:28;;;;;;;0.90;0.90;;;;;;;14.46;69.77;95284.25;5064061;28;20228;-78
2023/03/31 05:50:57;;;;;;;1.10;1.00;;;;;;;14.49;69.23;95274.75;5055256;28;20218;-78
2023/03/31 05:53:24;;;;;;;1.17;1.00;;;;;;;14.62;68.36;95268.72;5053980;28;20242;-77
2023/03/31 05:55:57;;;;;;;1.27;0.90;;;;;;;14.67;67.89;95255.88;5067012;28;20218;-79
2023/03/31 05:58:24;;;;;;;1.20;1.10;;;;;;;14.71;67.66;95267.03;5067820;28;20241;-78
2023/03/31 06:01:04;;;;;;;0.70;0.70;;;;;;;14.80;66.22;95262.56;5069198;28;20231;-78
2023/03/31 06:03:32;;;;;;;1.80;1.00;;;;;;;14.77;66.98;95284.91;5069824;28;20278;-79
2023/03/31 06:06:00;;;;;;;1.03;0.90;;;;;;;14.87;66.30;95295.72;5069545;28;20307;-78
2023/03/31 06:08:28;;;;;;;1.87;1.00;;;;;;;14.88;65.35;95253.84;5059689;28;20264;-78
2023/03/31 06:10:55;;;;;;;1.00;0.90;;;;;;;14.97;65.52;95243.19;5066314;28;20299;-78
2023/03/31 06:13:23;;;;;;;1.37;1.10;;;;;;;14.95;65.86;95229.88;5066931;28;20217;-78
2023/03/31 06:15:54;;;;;;;1.27;0.90;;;;;;;14.80;66.36;95240.84;5068403;28;20218;-78
2023/03/31 06:18:23;;;;;;;1.33;0.90;;;;;;;14.89;65.13;95209.25;5057660;28;20226;-77
2023/03/31 06:20:51;;;;;;;1.47;1.00;;;;;;;14.96;64.58;95215.19;5063678;28;20229;-79
2023/03/31 06:23:19;;;;;;;2.07;1.10;;;;;;;15.04;62.62;95203.69;5063729;28;20261;-78
2023/03/31 06:25:46;;;;;;;1.00;0.90;;;;;;;15.10;63.10;95205.25;5056243;28;20229;-79
2023/03/31 06:28:13;;;;;;;2.53;1.03;;;;;;;15.11;63.09;95203.34;5061959;28;20222;-78
2023/03/31 06:30:40;;;;;;;1.30;0.90;;;;;;;15.06;64.98;95206.91;5058672;28;20214;-78
2023/03/31 06:33:08;;;;;;;1.10;0.90;;;;;;;15.03;65.24;95223.81;5085301;28;20264;-79
2023/03/31 06:35:40;;;;;;;0.90;0.90;;;;;;;14.97;65.00;95192.31;5074373;28;20226;-78
2023/03/31 06:38:07;;;;;;;0.80;0.80;;;;;;;14.99;64.62;95211.88;5063396;28;20240;-79
2023/03/31 06:40:35;;;;;;;1.00;1.00;;;;;;;14.98;64.52;95242.88;5064993;28;20229;-77
2023/03/31 06:43:02;;;;;;;0.93;0.90;;;;;;;14.95;64.36;95240.75;5065579;28;20260;-78
2023/03/31 06:45:29;;;;;;;0.80;0.80;;;;;;;15.04;63.06;95251.81;5059179;28;20225;-77
2023/03/31 06:47:56;;;;;;;0.90;0.90;;;;;;;15.07;63.00;95262.91;5061859;28;20316;-78
2023/03/31 06:50:24;;;;;;;2.60;1.10;;;;;;;15.15;62.39;95242.44;5062237;28;20229;-79
2023/03/31 06:52:54;;;;;;;1.17;1.03;;;;;;;15.31;61.95;95224.91;5059659;28;20248;-78
2023/03/31 06:55:21;;;;;;;1.80;1.10;;;;;;;15.57;58.88;95209.16;5061707;28;20308;-78
2023/03/31 06:57:48;;;;;;;1.10;1.00;;;;;;;15.65;60.06;95210.44;5058631;28;20244;-78
2023/03/31 07:00:16;;;;;;;1.33;1.00;;;;;;;15.65;61.05;95222.13;5066406;28;20286;-78
2023/03/31 07:02:43;;;;;;;0.90;0.90;;;;;;;15.60;59.79;95222.19;5063790;28;20222;-79
2023/03/31 07:05:11;;;;;;;1.37;1.17;;;;;;;15.65;60.62;95224.06;5063376;28;20230;-79
2023/03/31 07:07:38;;;;;;;3.20;1.67;;;;;;;15.54;61.52;95212.47;5059628;28;20283;-79
2023/03/31 07:10:08;;;;;;;1.80;1.30;;;;;;;15.58;60.35;95218.13;5062889;28;20234;-78
2023/03/31 07:12:36;;;;;;;2.27;1.57;;;;;;;15.59;60.86;95182.47;5064303;28;20213;-78
2023/03/31 07:15:03;;;;;;;1.30;1.20;;;;;;;15.54;61.51;95198.06;5062023;28;20232;-78
2023/03/31 07:17:29;;;;;;;1.70;1.23;;;;;;;15.49;62.21;95185.28;5060014;28;20225;-79
2023/03/31 07:19:57;;;;;;;1.40;1.30;;;;;;;15.48;61.62;95192.63;5083952;28;20296;-78
2023/03/31 07:22:25;;;;;;;1.73;1.10;;;;;;;15.47;62.31;95177.44;5057609;28;20233;-79
2023/03/31 07:24:52;;;;;;;1.70;1.60;;;;;;;15.54;60.48;95187.97;5062914;28;20221;-78
2023/03/31 07:27:20;;;;;;;1.40;1.30;;;;;;;15.64;60.59;95190.59;5060599;28;20217;-79
2023/03/31 07:29:47;;;;;;;1.33;1.23;;;;;;;15.56;61.63;95199.41;5057470;28;20314;-78
2023/03/31 07:32:14;;;;;;;1.40;1.30;;;;;;;15.51;61.25;95229.31;5062591;28;20217;-78
2023/03/31 07:34:41;;;;;;;2.40;1.20;;;;;;;15.45;61.00;95219.59;5064165;28;21514;-78
2023/03/31 07:37:08;;;;;;;1.77;1.47;;;;;;;15.43;61.49;95247.09;5068729;28;20217;-78
2023/03/31 07:39:36;;;;;;;3.00;1.50;;;;;;;15.45;61.24;95246.81;5067063;28;20238;-79
2023/03/31 07:42:04;;;;;;;2.73;1.30;;;;;;;15.33;63.57;95238.22;5053355;28;20293;-78
2023/03/31 07:44:35;;;;;;;1.53;1.43;;;;;;;15.30;62.77;95252.41;5060042;28;20225;-77
2023/03/31 07:47:03;;;;;;;1.40;1.30;;;;;;;15.37;61.16;95250.16;5074303;28;20236;-79
2023/03/31 07:49:31;;;;;;;1.40;1.30;;;;;;;15.36;61.71;95262.13;5065463;28;20288;-78
2023/03/31 07:51:59;;;;;;;2.13;1.33;;;;;;;15.35;63.31;95302.13;5064590;28;20233;-79
2023/03/31 07:54:26;;;;;;;1.63;1.37;;;;;;;15.21;69.78;95346.56;5058173;28;20275;-78
2023/03/31 07:56:53;;;;;;;1.67;1.50;;;;;;;14.98;73.15;95372.53;5058638;28;20282;-79
2023/03/31 07:59:20;;;;;;;8.03;4.63;;;;;;;14.46;85.88;95371.16;5058675;28;20233;-79
2023/03/31 08:01:49;;;;;;;7.17;4.77;;;;;;;14.00;97.61;95368.59;5064900;28;20232;-77
2023/03/31 08:04:16;;;;;;;7.53;5.63;;;;;;;13.44;100.00;95370.56;5081344;28;20222;-78
2023/03/31 08:06:43;;;;;;;6.77;5.20;;;;;;;13.21;100.00;95349.44;5061955;28;20288;-78
2023/03/31 08:09:10;;;;;;;10.97;6.03;;;;;;;13.05;100.00;95356.72;5055497;28;20229;-79
2023/03/31 08:11:37;;;;;;;7.80;5.93;;;;;;;12.95;100.00;95377.53;5063773;28;20224;-78
2023/03/31 08:14:05;;;;;;;9.80;6.33;;;;;;;12.77;100.00;95387.81;5059504;28;20224;-79
2023/03/31 08:16:32;;;;;;;9.53;6.43;;;;;;;12.57;100.00;95414.84;5057678;28;20292;-79
2023/03/31 08:19:02;;;;;;;7.27;6.47;;;;;;;12.31;100.00;95445.59;5061121;28;20221;-79
2023/03/31 08:21:29;;;;;;;7.63;5.83;;;;;;;12.10;100.00;95453.59;5070175;28;20229;-78
2023/03/31 08:23:56;;;;;;;8.73;6.47;;;;;;;11.92;100.00;95440.47;5063794;28;20225;-78
2023/03/31 08:26:24;;;;;;;9.60;6.40;;;;;;;11.89;100.00;95457.25;5069134;28;20236;-79
2023/03/31 08:28:52;;;;;;;8.67;6.43;;;;;;;11.82;100.00;95456.66;5079698;28;20225;-79
2023/03/31 08:31:22;;;;;;;9.97;6.10;;;;;;;11.81;100.00;95448.78;5068625;28;20217;-79
2023/03/31 08:33:50;;;;;;;11.47;8.37;;;;;;;11.79;100.00;95449.06;5077489;28;20230;-79
2023/03/31 08:36:21;;;;;;;9.43;6.97;;;;;;;11.51;100.00;95420.41;5066335;28;20300;-78
2023/03/31 08:38:48;;;;;;;11.00;7.33;;;;;;;11.50;100.00;95464.72;5074312;28;20325;-78
2023/03/31 08:41:30;;;;;;;11.80;7.63;;;;;;;11.48;100.00;95487.72;5060717;28;20221;-79
2023/03/31 08:43:59;;;;;;;12.57;7.20;;;;;;;11.38;100.00;95475.72;5064715;28;20312;-80
2023/03/31 08:46:29;;;;;;;9.90;6.50;;;;;;;11.25;100.00;95481.53;5058602;28;20232;-78
2023/03/31 08:48:58;;;;;;;9.73;7.00;;;;;;;11.13;100.00;95467.38;5083679;28;20232;-80
2023/03/31 08:51:30;;;;;;;11.43;7.10;;;;;;;11.00;100.00;95465.88;5064959;28;20218;-78
2023/03/31 08:54:02;;;;;;;11.30;6.90;;;;;;;10.91;100.00;95478.22;5061599;28;20250;-78
2023/03/31 08:56:36;;;;;;;9.33;6.17;;;;;;;10.90;100.00;95459.53;5058243;28;20232;-79
2023/03/31 08:59:03;;;;;;;8.10;6.50;;;;;;;10.99;100.00;95458.03;5054695;28;20291;-78
2023/03/31 09:01:40;;;;;;;10.57;7.17;;;;;;;10.99;100.00;95474.22;5066152;28;20221;-78
2023/03/31 09:04:24;;;;;;;10.57;7.07;;;;;;;10.97;100.00;95444.78;5066661;28;20249;-79
2023/03/31 09:07:01;;;;;;;11.17;7.00;;;;;;;10.85;100.00;95454.09;5059614;28;20284;-78
2023/03/31 09:09:37;;;;;;;8.67;6.13;;;;;;;10.78;100.00;95446.22;5062905;28;20309;-78
2023/03/31 09:12:11;;;;;;;7.40;4.57;;;;;;;10.81;100.00;95461.88;5067460;28;20231;-78
2023/03/31 09:14:45;;;;;;;3.47;2.50;;;;;;;10.79;100.00;95476.72;5056008;28;20233;-78
2023/03/31 09:17:18;;;;;;;2.27;1.80;;;;;;;10.86;100.00;95459.25;5055912;28;20304;-78
2023/03/31 09:19:49;;;;;;;3.00;1.73;;;;;;;10.86;100.00;95461.13;5062569;28;20230;-78
2023/03/31 09:22:23;;;;;;;1.83;1.40;;;;;;;10.96;100.00;95466.66;5054339;28;20283;-78
2023/03/31 09:24:57;;;;;;;3.67;1.20;;;;;;;11.13;100.00;95437.66;5055919;28;20251;-77
2023/03/31 09:27:30;;;;;;;1.57;1.27;;;;;;;11.50;100.00;95429.59;5060321;28;20245;-78
2023/03/31 09:30:01;;;;;;;1.40;1.30;;;;;;;11.64;100.00;95428.09;5057063;28;20234;-79
2023/03/31 09:32:30;;;;;;;1.90;1.40;;;;;;;11.93;100.00;95420.47;5062542;28;20225;-78
2023/03/31 09:35:02;;;;;;;1.70;1.60;;;;;;;12.10;100.00;95399.47;5063736;28;20221;-77
2023/03/31 09:37:33;;;;;;;2.37;1.90;;;;;;;12.15;100.00;95373.53;5067327;28;20271;-77
2023/03/31 09:40:06;;;;;;;4.13;2.50;;;;;;;12.02;100.00;95362.09;5062413;28;20217;-77
2023/03/31 09:42:34;;;;;;;2.50;2.00;;;;;;;11.91;100.00;95367.72;5066301;28;20224;-77
2023/03/31 09:45:01;;;;;;;2.77;1.97;;;;;;;11.91;100.00;95370.44;5060612;28;20276;-77
2023/03/31 09:47:34;;;;;;;1.87;1.60;;;;;;;11.86;100.00;95370.38;5060740;28;20312;-76
2023/03/31 09:50:01;;;;;;;1.87;1.77;;;;;;;11.94;100.00;95372.59;5062791;28;20225;-77
2023/03/31 09:52:33;;;;;;;1.70;1.60;;;;;;;11.88;100.00;95363.66;5061849;28;20225;-78
2023/03/31 09:55:02;;;;;;;2.13;1.43;;;;;;;11.87;100.00;95372.00;5057631;28;20316;-77
2023/03/31 09:57:31;;;;;;;2.20;1.90;;;;;;;11.83;100.00;95377.13;5062901;28;20308;-77
2023/03/31 10:00:12;;;;;;;2.83;2.17;;;;;;;11.81;100.00;95370.38;5060944;28;20236;-77
2023/03/31 10:02:44;;;;;;;3.73;2.10;;;;;;;11.86;100.00;95359.56;5065838;28;20251;-77
2023/03/31 10:05:22;;;;;;;2.30;1.70;;;;;;;11.89;100.00;95380.69;5061077;28;20229;-77
2023/03/31 10:07:51;;;;;;;1.90;1.70;;;;;;;11.84;100.00;95392.28;5074242;28;20313;-77
2023/03/31 10:10:29;;;;;;;2.83;1.63;;;;;;;11.87;100.00;95397.19;5055240;28;20225;-78
2023/03/31 10:12:56;;;;;;;1.40;1.30;;;;;;;11.84;100.00;95400.38;5061368;28;20496;-78
2023/03/31 10:15:27;;;;;;;1.80;1.70;;;;;;;11.87;100.00;95399.88;5062220;28;20233;-79
2023/03/31 10:17:57;;;;;;;2.67;1.97;;;;;;;11.76;100.00;95411.69;5056459;28;20226;-77
2023/03/31 10:20:33;;;;;;;2.77;2.20;;;;;;;11.62;100.00;95418.59;5057004;28;20217;-77
2023/03/31 10:23:16;;;;;;;3.80;2.20;;;;;;;11.47;100.00;95413.09;5073802;28;20236;-77
2023/03/31 10:25:43;;;;;;;4.80;4.03;;;;;;;11.42;100.00;95413.03;5059249;28;20239;-77
2023/03/31 10:28:13;;;;;;;10.30;6.97;;;;;;;11.35;100.00;95442.97;5055724;28;20221;-77
2023/03/31 10:30:40;;;;;;;6.30;4.87;;;;;;;11.22;100.00;95429.91;5062985;28;20252;-76
2023/03/31 10:33:14;;;;;;;1.77;1.67;;;;;;;11.09;100.00;95420.31;5055292;28;20320;-77
2023/03/31 10:35:41;;;;;;;1.40;1.30;;;;;;;10.89;100.00;95428.22;5059478;28;20323;-77
2023/03/31 10:38:16;;;;;;;3.73;2.03;;;;;;;10.83;100.00;95450.84;5057257;28;20234;-76
2023/03/31 10:40:50;;;;;;;2.13;1.73;;;;;;;10.79;100.00;95431.63;5065206;28;20254;-77
2023/03/31 10:43:20;;;;;;;3.07;2.40;;;;;;;10.71;100.00;95458.28;5053069;28;20231;-78
2023/03/31 10:45:49;;;;;;;4.90;3.70;;;;;;;10.66;100.00;95439.31;5065735;28;20229;-77
2023/03/31 10:48:24;;;;;;;2.87;2.37;;;;;;;10.52;100.00;95420.81;5062485;28;20236;-77
2023/03/31 10:50:51;;;;;;;4.90;3.23;;;;;;;10.44;100.00;95402.34;5061403;28;20279;-77
2023/03/31 10:53:20;;;;;;;5.47;3.30;;;;;;;10.42;100.00;95400.97;5066603;28;20307;-77
2023/03/31 10:56:13;;;;;;;3.67;2.50;;;;;;;10.39;100.00;95394.19;5060957;28;20226;-78
2023/03/31 10:58:55;;;;;;;4.67;2.83;;;;;;;10.43;100.00;95389.13;5080287;28;20320;-78
2023/03/31 11:01:32;;;;;;;4.77;3.13;;;;;;;10.59;100.00;95389.03;5065458;28;20363;-77
2023/03/31 11:04:27;;;;;;;4.43;3.23;;;;;;;10.78;100.00;95386.00;5060954;28;20226;-78
2023/03/31 11:07:05;;;;;;;4.57;3.00;;;;;;;10.87;100.00;95392.56;5057744;28;20248;-77
2023/03/31 11:09:44;;;;;;;6.00;2.20;;;;;;;10.91;100.00;95412.56;5056269;28;20218;-79
2023/03/31 11:12:21;;;;;;;3.07;1.97;;;;;;;10.83;100.00;95396.81;5065690;28;20321;-78
2023/03/31 11:15:03;;;;;;;1.80;1.60;;;;;;;10.72;100.00;95366.19;5066960;28;20222;-78
2023/03/31 11:17:40;;;;;;;2.13;1.50;;;;;;;10.65;100.00;95353.97;5061209;28;20249;-78
2023/03/31 11:20:21;;;;;;;5.27;1.70;;;;;;;10.63;100.00;95368.53;5055460;28;20237;-78
2023/03/31 11:22:55;;;;;;;3.13;2.00;;;;;;;10.62;100.00;95355.31;5066225;28;20253;-78
2023/03/31 11:25:34;;;;;;;4.13;2.37;;;;;;;10.65;100.00;95370.19;5073291;28;20335;-78
2023/03/31 11:28:26;;;;;;;3.57;2.13;;;;;;;10.64;100.00;95390.94;5050956;28;20226;-78
2023/03/31 11:31:04;;;;;;;2.33;2.00;;;;;;;10.68;100.00;95385.88;5055559;28;20228;-79
2023/03/31 11:33:54;;;;;;;4.17;1.93;;;;;;;10.66;100.00;95388.81;5056629;28;20260;-78
2023/03/31 11:36:43;;;;;;;3.70;2.30;;;;;;;10.73;100.00;95394.03;5075612;28;20222;-78
2023/03/31 11:39:22;;;;;;;4.03;2.20;;;;;;;10.71;100.00;95390.78;5042039;28;20245;-77
2023/03/31 11:41:53;;;;;;;3.60;3.00;;;;;;;10.72;100.00;95392.41;5069121;28;20217;-77
2023/03/31 11:44:24;;;;;;;2.60;1.90;;;;;;;10.73;100.00;95377.81;5068285;28;20225;-78
2023/03/31 11:46:54;;;;;;;3.23;1.97;;;;;;;10.69;100.00;95368.63;5077051;28;20225;-77
2023/03/31 11:49:27;;;;;;;2.30;1.90;;;;;;;10.65;100.00;95356.69;5056050;28;20225;-77